createdAt,value
2023-11-25T00:02:03.631Z,7.01
2023-11-25T00:04:32.618Z,6.89
2023-11-25T00:07:00.275Z,7.42
2023-11-25T00:09:30.218Z,7.44
2023-11-25T00:11:57.844Z,6.29
2023-11-25T00:14:25.517Z,6.08
2023-11-25T00:16:53.180Z,5.35
2023-11-25T00:19:20.897Z,5.57
2023-11-25T00:21:49.835Z,5.38
2023-11-25T00:24:17.485Z,5.50
2023-11-25T00:26:45.069Z,5.70
2023-11-25T00:29:12.670Z,6.55
2023-11-25T00:31:40.331Z,7.02
2023-11-25T00:34:08.015Z,7.15
2023-11-25T00:36:35.664Z,7.08
2023-11-25T00:39:04.680Z,7.18
2023-11-25T00:41:32.265Z,7.64
2023-11-25T00:43:59.878Z,7.66
2023-11-25T00:46:27.589Z,7.62
2023-11-25T00:48:55.266Z,7.83
2023-11-25T00:51:22.908Z,7.95
2023-11-25T00:53:50.521Z,8.00
2023-11-25T00:56:19.478Z,8.02
2023-11-25T00:58:47.094Z,8.01
2023-11-25T01:01:14.735Z,7.54
2023-11-25T01:03:42.434Z,7.81
2023-11-25T01:06:10.619Z,7.73
2023-11-25T01:08:38.204Z,7.67
2023-11-25T01:11:06.424Z,7.47
2023-11-25T01:13:35.471Z,7.15
2023-11-25T01:16:03.590Z,6.83
2023-11-25T01:18:31.766Z,6.95
2023-11-25T01:20:59.393Z,6.74
2023-11-25T01:23:27.005Z,6.37
2023-11-25T01:25:54.678Z,6.72
2023-11-25T01:28:22.278Z,6.66
2023-11-25T01:30:51.257Z,7.00
2023-11-25T01:33:18.840Z,6.40
2023-11-25T01:35:48.468Z,5.90
2023-11-25T01:38:16.462Z,5.58
2023-11-25T01:40:44.310Z,5.18
2023-11-25T01:43:12.515Z,5.22
2023-11-25T01:45:41.071Z,5.39
2023-11-25T01:48:10.821Z,5.13
2023-11-25T01:50:38.544Z,4.79
2023-11-25T01:53:06.910Z,4.74
2023-11-25T01:55:35.438Z,4.88
2023-11-25T01:58:03.263Z,5.03
2023-11-25T02:00:30.869Z,4.59
2023-11-25T02:02:58.529Z,5.01
2023-11-25T02:05:27.680Z,4.92
2023-11-25T02:07:55.336Z,5.33
2023-11-25T02:10:22.956Z,5.60
2023-11-25T02:12:50.536Z,5.87
2023-11-25T02:15:18.357Z,5.85
2023-11-25T02:17:45.967Z,6.02
2023-11-25T02:20:14.036Z,5.78
2023-11-25T02:22:52.167Z,5.77
2023-11-25T02:25:19.869Z,5.32
2023-11-25T02:27:47.557Z,5.25
2023-11-25T02:30:15.293Z,5.15
2023-11-25T02:32:42.961Z,5.08
2023-11-25T02:35:10.866Z,4.95
2023-11-25T02:37:38.612Z,4.97
2023-11-25T02:40:09.676Z,5.22
2023-11-25T02:42:37.300Z,5.13
2023-11-25T02:45:06.009Z,5.11
2023-11-25T02:47:33.660Z,5.16
2023-11-25T02:50:01.251Z,5.20
2023-11-25T02:52:28.835Z,5.35
2023-11-25T02:54:56.415Z,5.55
2023-11-25T02:57:25.370Z,5.31
2023-11-25T02:59:52.938Z,4.94
2023-11-25T03:02:20.633Z,4.72
2023-11-25T03:04:48.321Z,4.38
2023-11-25T03:07:15.971Z,5.02
2023-11-25T03:09:43.563Z,4.83
2023-11-25T03:12:11.650Z,5.22
2023-11-25T03:14:40.564Z,4.79
2023-11-25T03:17:08.263Z,4.08
2023-11-25T03:19:35.898Z,4.08
2023-11-25T03:22:04.672Z,4.27
2023-11-25T03:24:32.290Z,4.33
2023-11-25T03:26:59.929Z,4.19
2023-11-25T03:29:27.514Z,4.18
2023-11-25T03:31:56.626Z,4.03
2023-11-25T03:34:24.276Z,3.97
2023-11-25T03:36:51.909Z,3.86
2023-11-25T03:39:21.225Z,4.14
2023-11-25T03:41:48.835Z,4.39
2023-11-25T03:44:16.419Z,4.71
2023-11-25T03:46:44.118Z,5.36
2023-11-25T03:49:13.619Z,5.21
2023-11-25T03:51:41.277Z,4.65
2023-11-25T03:54:08.914Z,4.22
2023-11-25T03:56:36.514Z,3.84
2023-11-25T03:59:04.144Z,4.06
2023-11-25T04:01:31.852Z,3.87
2023-11-25T04:03:59.555Z,3.90
2023-11-25T04:06:28.530Z,4.42
2023-11-25T04:08:56.146Z,5.09
2023-11-25T04:11:23.726Z,5.50
2023-11-25T04:13:51.342Z,5.23
2023-11-25T04:16:19.086Z,5.40
2023-11-25T04:18:47.025Z,5.10
2023-11-25T04:21:14.761Z,5.08
2023-11-25T04:23:43.750Z,4.90
2023-11-25T04:26:11.356Z,4.96
2023-11-25T04:28:38.962Z,4.92
2023-11-25T04:31:06.608Z,4.95
2023-11-25T04:33:34.235Z,4.70
2023-11-25T04:36:01.822Z,4.98
2023-11-25T04:38:29.382Z,4.55
2023-11-25T04:40:58.627Z,4.23
2023-11-25T04:43:26.321Z,4.40
2023-11-25T04:45:53.901Z,4.25
2023-11-25T04:48:21.547Z,3.57
2023-11-25T04:50:49.190Z,3.99
2023-11-25T04:53:16.785Z,4.50
2023-11-25T04:55:44.383Z,4.66
2023-11-25T04:58:13.387Z,4.62
2023-11-25T05:00:41.106Z,5.10
2023-11-25T05:03:08.733Z,5.50
2023-11-25T05:05:36.309Z,5.66
2023-11-25T05:08:04.254Z,5.75
2023-11-25T05:10:31.967Z,5.80
2023-11-25T05:12:59.671Z,5.39
2023-11-25T05:15:28.639Z,5.47
2023-11-25T05:17:56.378Z,5.79
2023-11-25T05:20:24.006Z,5.73
2023-11-25T05:22:51.706Z,5.64
2023-11-25T05:25:19.413Z,5.62
2023-11-25T05:27:47.064Z,5.52
2023-11-25T05:30:15.507Z,5.65
2023-11-25T05:32:44.877Z,5.44
2023-11-25T05:35:13.675Z,5.64
2023-11-25T05:37:41.316Z,5.58
2023-11-25T05:40:09.981Z,5.64
2023-11-25T05:42:37.571Z,5.31
2023-11-25T05:45:07.792Z,5.62
2023-11-25T05:47:35.418Z,5.59
2023-11-25T05:50:05.233Z,5.55
2023-11-25T05:52:32.937Z,5.11
2023-11-25T05:55:00.565Z,5.07
2023-11-25T05:57:28.150Z,4.82
2023-11-25T05:59:55.721Z,4.90
2023-11-25T06:02:23.319Z,4.46
2023-11-25T06:04:51.067Z,4.25
2023-11-25T06:07:20.110Z,4.14
2023-11-25T06:09:47.773Z,4.57
2023-11-25T06:12:15.408Z,4.45
2023-11-25T06:14:43.063Z,4.68
2023-11-25T06:17:10.642Z,4.64
2023-11-25T06:19:38.340Z,4.50
2023-11-25T06:22:05.959Z,4.36
2023-11-25T06:24:34.900Z,4.38
2023-11-25T06:27:02.568Z,4.38
2023-11-25T06:29:30.435Z,4.62
2023-11-25T06:31:58.066Z,4.46
2023-11-25T06:34:25.677Z,4.59
2023-11-25T06:36:53.294Z,4.70
2023-11-25T06:39:20.923Z,4.07
2023-11-25T06:41:49.952Z,3.71
2023-11-25T06:44:17.714Z,3.76
2023-11-25T06:46:45.393Z,4.19
2023-11-25T06:49:13.322Z,3.88
2023-11-25T06:51:41.206Z,4.04
2023-11-25T06:54:09.116Z,4.56
2023-11-25T06:56:37.529Z,4.30
2023-11-25T06:59:06.625Z,4.46
2023-11-25T07:01:34.907Z,4.61
2023-11-25T07:04:02.953Z,4.38
2023-11-25T07:06:30.543Z,4.13
2023-11-25T07:08:58.157Z,3.82
2023-11-25T07:11:25.900Z,3.96
2023-11-25T07:13:53.521Z,3.94
2023-11-25T07:16:22.551Z,4.09
2023-11-25T07:18:50.191Z,4.13
2023-11-25T07:21:17.876Z,4.31
2023-11-25T07:23:45.476Z,4.90
2023-11-25T07:26:15.479Z,5.03
2023-11-25T07:28:43.517Z,4.39
2023-11-25T07:31:11.414Z,4.95
2023-11-25T07:33:40.393Z,5.62
2023-11-25T07:36:08.415Z,5.97
2023-11-25T07:38:35.997Z,6.00
2023-11-25T07:41:03.608Z,4.76
2023-11-25T07:43:31.236Z,5.68
2023-11-25T07:45:58.850Z,5.96
2023-11-25T07:48:26.460Z,6.23
2023-11-25T07:50:55.406Z,6.07
2023-11-25T07:53:23.044Z,6.01
2023-11-25T07:55:50.810Z,6.38
2023-11-25T07:58:18.722Z,6.44
2023-11-25T08:00:46.333Z,6.02
2023-11-25T08:03:14.106Z,5.03
2023-11-25T08:05:41.893Z,5.73
2023-11-25T08:08:10.875Z,6.27
2023-11-25T08:10:39.090Z,6.30
2023-11-25T08:13:06.744Z,6.51
2023-11-25T08:15:34.427Z,6.44
2023-11-25T08:18:02.367Z,5.80
2023-11-25T08:20:30.064Z,5.77
2023-11-25T08:22:57.704Z,5.94
2023-11-25T08:25:26.761Z,5.12
2023-11-25T08:27:54.416Z,5.29
2023-11-25T08:30:22.259Z,5.51
2023-11-25T08:32:49.985Z,6.19
2023-11-25T08:35:17.713Z,6.30
2023-11-25T08:37:45.342Z,5.55
2023-11-25T08:40:13.132Z,6.03
2023-11-25T08:42:42.292Z,6.07
2023-11-25T08:45:10.461Z,6.25
2023-11-25T08:47:38.166Z,6.44
2023-11-25T08:50:07.079Z,6.59
2023-11-25T08:52:34.733Z,5.66
2023-11-25T08:55:02.387Z,6.03
2023-11-25T08:57:30.063Z,6.15
2023-11-25T08:59:59.051Z,6.28
2023-11-25T09:02:26.741Z,6.21
2023-11-25T09:05:03.287Z,6.37
2023-11-25T09:07:36.023Z,6.07
2023-11-25T09:10:04.767Z,5.89
2023-11-25T09:12:32.426Z,5.32
2023-11-25T09:15:01.822Z,5.67
2023-11-25T09:17:29.439Z,6.19
2023-11-25T09:19:57.083Z,6.71
2023-11-25T09:22:24.775Z,7.07
2023-11-25T09:24:52.416Z,7.14
2023-11-25T09:27:20.050Z,8.42
2023-11-25T09:29:47.737Z,8.55
2023-11-25T09:32:16.683Z,9.06
2023-11-25T09:34:44.286Z,9.24
2023-11-25T09:37:11.925Z,9.95
2023-11-25T09:39:39.550Z,7.56
2023-11-25T09:42:07.598Z,7.60
2023-11-25T09:44:38.622Z,6.90
2023-11-25T09:47:07.955Z,6.69
2023-11-25T09:49:37.008Z,7.38
2023-11-25T09:52:05.476Z,7.40
2023-11-25T09:54:35.974Z,7.69
2023-11-25T09:57:06.158Z,6.74
2023-11-25T09:59:35.053Z,7.61
2023-11-25T10:02:04.653Z,7.15
2023-11-25T10:04:33.124Z,7.16
2023-11-25T10:07:02.168Z,6.36
2023-11-25T10:09:29.800Z,7.13
2023-11-25T10:11:57.421Z,7.48
2023-11-25T10:14:27.348Z,6.57
2023-11-25T10:16:55.053Z,6.81
2023-11-25T10:19:24.354Z,7.25
2023-11-25T10:21:52.592Z,7.30
2023-11-25T10:24:21.680Z,7.26
2023-11-25T10:26:50.343Z,7.57
2023-11-25T10:29:19.902Z,7.23
2023-11-25T10:31:56.004Z,7.04
2023-11-25T10:34:24.135Z,7.15
2023-11-25T10:36:51.829Z,7.14
2023-11-25T10:39:23.176Z,6.79
2023-11-25T10:41:51.993Z,7.05
2023-11-25T10:44:20.801Z,7.18
2023-11-25T10:46:48.474Z,7.16
2023-11-25T10:49:17.092Z,6.76
2023-11-25T10:51:45.652Z,7.08
2023-11-25T10:54:16.247Z,6.71
2023-11-25T10:56:45.623Z,7.46
2023-11-25T10:59:13.466Z,7.06
2023-11-25T11:01:44.357Z,7.31
2023-11-25T11:04:22.479Z,7.48
2023-11-25T11:06:54.201Z,7.79
2023-11-25T11:09:26.481Z,7.42
2023-11-25T11:12:02.222Z,7.73
2023-11-25T11:14:35.987Z,7.74
2023-11-25T11:17:11.592Z,7.88
2023-11-25T11:19:43.304Z,9.22
2023-11-25T11:22:12.475Z,9.57
2023-11-25T11:25:07.277Z,8.89
2023-11-25T11:27:47.465Z,9.13
2023-11-25T11:30:26.758Z,9.48
2023-11-25T11:32:57.155Z,10.43
2023-11-25T11:35:35.669Z,9.37
2023-11-25T11:38:03.374Z,9.28
2023-11-25T11:40:31.035Z,9.68
2023-11-25T11:43:03.656Z,8.22
2023-11-25T11:45:31.418Z,8.32
2023-11-25T11:48:00.915Z,9.37
2023-11-25T11:50:30.906Z,9.19
2023-11-25T11:53:15.106Z,9.68
2023-11-25T11:55:49.768Z,10.69
2023-11-25T11:58:20.253Z,11.28
2023-11-25T12:00:49.711Z,11.59
2023-11-25T12:03:18.584Z,11.21
2023-11-25T12:05:46.514Z,9.97
2023-11-25T12:08:14.431Z,9.88
2023-11-25T12:10:42.360Z,9.45
2023-11-25T12:13:10.355Z,9.88
2023-11-25T12:15:39.893Z,10.93
2023-11-25T12:18:10.554Z,10.33
2023-11-25T12:20:38.894Z,10.89
2023-11-25T12:23:08.026Z,10.06
2023-11-25T12:25:37.143Z,10.47
2023-11-25T12:28:09.530Z,11.12
2023-11-25T12:30:40.338Z,11.33
2023-11-25T12:33:10.118Z,11.15
2023-11-25T12:35:39.294Z,11.06
2023-11-25T12:38:14.904Z,10.59
2023-11-25T12:40:44.361Z,10.96
2023-11-25T12:43:12.021Z,10.84
2023-11-25T12:45:42.398Z,9.90
2023-11-25T12:48:13.141Z,9.78
2023-11-25T12:51:01.042Z,9.32
2023-11-25T12:53:28.717Z,8.99
2023-11-25T12:55:57.959Z,9.02
2023-11-25T12:58:25.923Z,8.87
2023-11-25T13:00:56.774Z,8.28
2023-11-25T13:03:26.236Z,7.96
2023-11-25T13:05:59.088Z,7.91
2023-11-25T13:08:29.060Z,7.65
2023-11-25T13:10:57.609Z,7.89
2023-11-25T13:13:28.151Z,7.64
2023-11-25T13:15:59.223Z,7.75
2023-11-25T13:18:27.813Z,7.61
2023-11-25T13:20:56.652Z,7.20
2023-11-25T13:23:24.519Z,7.98
2023-11-25T13:25:52.238Z,8.14
2023-11-25T13:28:20.127Z,7.73
2023-11-25T13:30:47.807Z,7.49
2023-11-25T13:33:17.056Z,8.05
2023-11-25T13:35:45.522Z,7.49
2023-11-25T13:38:13.926Z,7.59
2023-11-25T13:40:41.625Z,7.19
2023-11-25T13:43:11.111Z,7.76
2023-11-25T13:45:38.753Z,7.98
2023-11-25T13:48:06.503Z,7.66
2023-11-25T13:50:35.831Z,7.65
2023-11-25T13:53:03.529Z,7.56
2023-11-25T13:55:31.252Z,6.94
2023-11-25T13:57:58.990Z,7.27
2023-11-25T14:00:27.870Z,7.27
2023-11-25T14:02:55.828Z,7.35
2023-11-25T14:05:23.509Z,7.36
2023-11-25T14:07:52.538Z,7.19
2023-11-25T14:10:20.656Z,7.47
2023-11-25T14:12:48.310Z,7.78
2023-11-25T14:15:15.949Z,7.78
2023-11-25T14:17:43.653Z,7.18
2023-11-25T14:20:12.069Z,7.24
2023-11-25T14:22:39.733Z,7.18
2023-11-25T14:25:09.353Z,7.36
2023-11-25T14:27:36.963Z,7.33
2023-11-25T14:30:05.625Z,6.52
2023-11-25T14:32:33.298Z,7.01
2023-11-25T14:35:01.197Z,7.09
2023-11-25T14:37:28.967Z,7.22
2023-11-25T14:40:00.944Z,7.37
2023-11-25T14:42:32.872Z,7.16
2023-11-25T14:45:01.879Z,7.29
2023-11-25T14:47:29.691Z,7.47
2023-11-25T14:49:57.489Z,7.71
2023-11-25T14:52:25.182Z,7.59
2023-11-25T14:54:53.575Z,7.79
2023-11-25T14:57:21.749Z,8.09
2023-11-25T14:59:50.726Z,7.09
2023-11-25T15:02:18.445Z,7.32
2023-11-25T15:04:46.162Z,7.26
2023-11-25T15:07:13.949Z,7.02
2023-11-25T15:09:43.481Z,7.59
2023-11-25T15:12:11.145Z,7.85
2023-11-25T15:14:39.119Z,7.75
2023-11-25T15:17:08.438Z,7.44
2023-11-25T15:19:36.221Z,7.54
2023-11-25T15:22:04.215Z,7.45
2023-11-25T15:24:31.900Z,7.49
2023-11-25T15:26:59.705Z,7.23
2023-11-25T15:29:27.322Z,6.95
2023-11-25T15:31:55.023Z,7.05
2023-11-25T15:34:24.028Z,7.41
2023-11-25T15:36:51.682Z,7.25
2023-11-25T15:39:19.397Z,7.53
2023-11-25T15:41:47.287Z,7.43
2023-11-25T15:44:14.947Z,7.59
2023-11-25T15:46:42.632Z,8.08
2023-11-25T15:49:10.269Z,7.99
2023-11-25T15:51:39.277Z,7.69
2023-11-25T15:54:07.082Z,7.66
2023-11-25T15:56:34.702Z,7.76
2023-11-25T15:59:02.485Z,7.52
2023-11-25T16:01:32.709Z,8.17
2023-11-25T16:04:00.643Z,7.97
2023-11-25T16:06:28.447Z,7.92
2023-11-25T16:08:57.508Z,8.18
2023-11-25T16:11:25.146Z,8.31
2023-11-25T16:13:52.797Z,8.36
2023-11-25T16:16:20.491Z,8.57
2023-11-25T16:18:48.116Z,8.26
2023-11-25T16:21:15.845Z,8.52
2023-11-25T16:23:45.261Z,8.28
2023-11-25T16:26:14.564Z,7.96
2023-11-25T16:28:42.325Z,8.33
2023-11-25T16:31:11.344Z,8.42
2023-11-25T16:33:39.451Z,8.10
2023-11-25T16:36:07.804Z,8.30
2023-11-25T16:38:35.476Z,8.28
2023-11-25T16:41:04.145Z,7.93
2023-11-25T16:43:34.863Z,7.98
2023-11-25T16:46:03.883Z,8.12
2023-11-25T16:48:39.401Z,8.18
2023-11-25T16:51:16.331Z,8.21
2023-11-25T16:53:44.005Z,8.28
2023-11-25T16:56:11.688Z,7.90
2023-11-25T16:58:40.735Z,7.85
2023-11-25T17:01:08.352Z,8.34
2023-11-25T17:03:36.476Z,8.34
2023-11-25T17:06:06.588Z,8.37
2023-11-25T17:08:34.612Z,8.49
2023-11-25T17:11:02.341Z,8.05
2023-11-25T17:13:30.013Z,8.18
2023-11-25T17:15:59.103Z,7.92
2023-11-25T17:18:26.798Z,8.17
2023-11-25T17:20:54.413Z,8.37
2023-11-25T17:23:22.056Z,8.57
2023-11-25T17:25:49.864Z,8.22
2023-11-25T17:28:17.557Z,7.81
2023-11-25T17:30:45.196Z,7.85
2023-11-25T17:33:14.389Z,7.42
2023-11-25T17:35:42.248Z,6.96
2023-11-25T17:38:09.976Z,7.23
2023-11-25T17:40:37.731Z,7.09
2023-11-25T17:43:05.463Z,6.68
2023-11-25T17:45:33.163Z,6.29
2023-11-25T17:48:00.951Z,6.02
2023-11-25T17:50:30.012Z,5.87
2023-11-25T17:53:06.752Z,6.10
2023-11-25T17:55:40.114Z,6.66
2023-11-25T17:58:07.783Z,6.98
2023-11-25T18:00:35.505Z,7.49
2023-11-25T18:03:03.565Z,7.25
2023-11-25T18:05:32.730Z,7.01
2023-11-25T18:08:00.448Z,6.81
2023-11-25T18:10:28.294Z,7.46
2023-11-25T18:12:56.014Z,6.76
2023-11-25T18:15:23.659Z,7.09
2023-11-25T18:17:51.428Z,7.70
2023-11-25T18:20:19.351Z,8.09
2023-11-25T18:22:48.516Z,8.27
2023-11-25T18:25:16.287Z,8.19
2023-11-25T18:27:44.090Z,8.16
2023-11-25T18:30:12.088Z,8.12
2023-11-25T18:32:39.894Z,8.29
2023-11-25T18:35:08.445Z,8.31
2023-11-25T18:37:36.220Z,8.52
2023-11-25T18:40:06.411Z,8.50
2023-11-25T18:42:34.063Z,8.46
2023-11-25T18:45:01.761Z,8.18
2023-11-25T18:47:29.614Z,8.22
2023-11-25T18:49:57.650Z,8.27
2023-11-25T18:52:25.364Z,7.78
2023-11-25T18:54:53.511Z,7.08
2023-11-25T18:57:23.523Z,6.90
2023-11-25T18:59:51.149Z,7.09
2023-11-25T19:02:18.860Z,7.20
2023-11-25T19:04:46.580Z,7.50
2023-11-25T19:07:14.244Z,7.85
2023-11-25T19:09:41.892Z,8.16
2023-11-25T19:12:09.517Z,8.45
2023-11-25T19:14:38.487Z,8.43
2023-11-25T19:17:06.300Z,7.80
2023-11-25T19:19:34.011Z,7.76
2023-11-25T19:22:01.646Z,7.39
2023-11-25T19:24:29.287Z,6.62
2023-11-25T19:26:56.981Z,6.74
2023-11-25T19:29:24.635Z,5.11
2023-11-25T19:31:53.695Z,4.56
2023-11-25T19:34:21.284Z,4.39
2023-11-25T19:36:48.894Z,4.35
2023-11-25T19:39:16.588Z,4.23
2023-11-25T19:41:44.186Z,4.28
2023-11-25T19:44:11.829Z,4.33
2023-11-25T19:46:39.509Z,4.45
2023-11-25T19:49:08.467Z,4.39
2023-11-25T19:51:36.068Z,4.29
2023-11-25T19:54:03.964Z,4.26
2023-11-25T19:56:31.562Z,4.37
2023-11-25T19:58:59.212Z,4.28
2023-11-25T20:01:26.908Z,4.40
2023-11-25T20:03:54.579Z,4.48
2023-11-25T20:06:23.581Z,4.82
2023-11-25T20:08:51.187Z,4.71
2023-11-25T20:11:18.791Z,4.82
2023-11-25T20:13:46.408Z,4.99
2023-11-25T20:16:14.048Z,5.20
2023-11-25T20:18:41.648Z,5.14
2023-11-25T20:21:09.345Z,4.94
2023-11-25T20:23:38.446Z,4.86
2023-11-25T20:26:06.437Z,4.74
2023-11-25T20:28:34.175Z,4.67
2023-11-25T20:31:03.629Z,4.81
2023-11-25T20:33:31.527Z,4.76
2023-11-25T20:35:59.159Z,4.93
2023-11-25T20:38:27.396Z,4.94
2023-11-25T20:40:56.440Z,4.98
2023-11-25T20:43:24.098Z,4.97
2023-11-25T20:45:51.804Z,4.81
2023-11-25T20:48:19.491Z,4.82
2023-11-25T20:50:47.093Z,4.78
2023-11-25T20:53:14.775Z,4.66
2023-11-25T20:55:42.416Z,4.63
2023-11-25T20:58:11.419Z,4.73
2023-11-25T21:00:39.180Z,4.88
2023-11-25T21:03:06.930Z,4.78
2023-11-25T21:05:34.587Z,4.82
2023-11-25T21:08:02.242Z,4.90
2023-11-25T21:10:29.889Z,4.75
2023-11-25T21:12:57.478Z,4.86
2023-11-25T21:15:26.428Z,4.80
2023-11-25T21:17:54.075Z,4.68
2023-11-25T21:20:21.731Z,4.60
2023-11-25T21:22:49.435Z,4.53
2023-11-25T21:25:17.072Z,4.39
2023-11-25T21:27:44.647Z,4.35
2023-11-25T21:30:13.438Z,4.32
2023-11-25T21:32:42.492Z,4.40
2023-11-25T21:35:10.293Z,4.37
2023-11-25T21:37:38.017Z,4.39
2023-11-25T21:40:13.910Z,4.40
2023-11-25T21:42:48.283Z,4.48
2023-11-25T21:45:16.065Z,4.56
2023-11-25T21:47:45.070Z,4.69
2023-11-25T21:50:12.712Z,4.75
2023-11-25T21:52:40.381Z,4.91
2023-11-25T21:55:08.675Z,4.82
2023-11-25T21:57:36.340Z,5.02
2023-11-25T22:00:05.021Z,5.55
2023-11-25T22:02:32.834Z,5.84
2023-11-25T22:05:03.417Z,5.70
2023-11-25T22:07:31.032Z,5.82
2023-11-25T22:09:58.699Z,5.63
2023-11-25T22:12:26.327Z,5.46
2023-11-25T22:14:53.972Z,5.38
2023-11-25T22:17:21.617Z,5.34
2023-11-25T22:19:49.259Z,5.17
2023-11-25T22:22:18.325Z,4.95
2023-11-25T22:24:45.936Z,4.98
2023-11-25T22:27:13.699Z,5.84
2023-11-25T22:29:41.282Z,5.59
2023-11-25T22:32:09.032Z,5.59
2023-11-25T22:34:36.705Z,5.80
2023-11-25T22:37:04.617Z,5.45
2023-11-25T22:39:33.566Z,5.23
2023-11-25T22:42:01.187Z,5.43
2023-11-25T22:44:28.817Z,5.11
2023-11-25T22:46:56.510Z,5.13
2023-11-25T22:49:24.134Z,5.84
2023-11-25T22:51:51.783Z,5.91
2023-11-25T22:54:19.422Z,5.14
2023-11-25T22:56:48.381Z,4.88
2023-11-25T22:59:16.001Z,4.67
2023-11-25T23:01:43.647Z,4.66
2023-11-25T23:04:11.341Z,4.62
2023-11-25T23:06:38.977Z,4.42
2023-11-25T23:09:06.591Z,4.44
2023-11-25T23:11:34.992Z,4.59
2023-11-25T23:14:04.287Z,4.60
2023-11-25T23:16:32.059Z,4.59
2023-11-25T23:19:00.233Z,4.50
2023-11-25T23:21:27.874Z,4.39
2023-11-25T23:23:55.988Z,4.35
2023-11-25T23:26:23.611Z,4.36
2023-11-25T23:28:51.257Z,4.40
2023-11-25T23:31:20.242Z,4.45
2023-11-25T23:33:47.839Z,4.61
2023-11-25T23:36:15.429Z,4.89
2023-11-25T23:38:43.046Z,5.02
2023-11-25T23:41:10.661Z,4.98
2023-11-25T23:43:38.294Z,4.90
2023-11-25T23:46:05.935Z,5.43
2023-11-25T23:48:34.932Z,5.59
2023-11-25T23:51:02.667Z,5.55
2023-11-25T23:53:30.359Z,5.33
2023-11-25T23:55:58.399Z,5.28
2023-11-25T23:58:26.055Z,6.10
